Time;durP1;ratioP1;P1;durP2;ratioP2;P2;SDS_P1;SDS_P2;PMS_P1;PMS_P2;Temp;Humidity;BMP_temperature;BMP_pressure;BME280_temperature;BME280_humidity;BME280_pressure;Samples;Min_cycle;Max_cycle;Signal;HPM_P1;HPM_P2
2021/09/08 00:01:52;;;;;;;24.30;18.42;;;;;;;;;;5081143;28;20076;-67
2021/09/08 00:04:18;;;;;;;29.65;19.75;;;;;;;;;;5081528;28;20042;-67
2021/09/08 00:06:44;;;;;;;27.33;20.15;;;;;;;;;;5085290;28;20100;-67
2021/09/08 00:09:10;;;;;;;29.42;20.00;;;;;;;;;;5081988;28;20051;-67
2021/09/08 00:11:36;;;;;;;26.40;20.17;;;;;;;;;;5100186;28;20566;-67
2021/09/08 00:14:03;;;;;;;24.98;19.30;;;;;;;;;;5086158;28;20035;-67
2021/09/08 00:16:29;;;;;;;26.10;19.73;;;;;;;;;;5099139;28;20406;-67
2021/09/08 00:18:55;;;;;;;28.60;19.75;;;;;;;;;;5078737;28;20036;-66
2021/09/08 00:21:21;;;;;;;24.15;19.95;;;;;;;;;;5081962;28;20063;-67
2021/09/08 00:23:47;;;;;;;25.95;19.15;;;;;;;;;;5082602;28;20406;-67
2021/09/08 00:26:14;;;;;;;27.17;20.00;;;;;;;;;;5104026;28;20054;-67
2021/09/08 00:28:40;;;;;;;25.38;19.88;;;;;;;;;;5079363;28;20047;-67
2021/09/08 00:31:06;;;;;;;27.00;20.63;;;;;;;;;;5058554;28;20115;-67
2021/09/08 00:33:32;;;;;;;29.52;20.10;;;;;;;;;;5077364;28;20052;-67
2021/09/08 00:35:58;;;;;;;26.48;19.52;;;;;;;;;;5075325;28;20048;-67
2021/09/08 00:38:25;;;;;;;26.40;19.77;;;;;;;;;;5079240;28;20496;-67
2021/09/08 00:40:54;;;;;;;26.10;19.25;;;;;;;;;;5079878;28;20067;-67
2021/09/08 00:43:20;;;;;;;29.40;20.63;;;;;;;;;;5082890;28;20160;-67
2021/09/08 00:45:51;;;;;;;24.80;19.13;;;;;;;;;;5083322;28;20041;-67
2021/09/08 00:48:18;;;;;;;25.23;18.63;;;;;;;;;;5065390;28;20496;-67
2021/09/08 00:50:44;;;;;;;22.77;18.67;;;;;;;;;;5078969;28;20059;-67
2021/09/08 00:53:11;;;;;;;30.45;19.25;;;;;;;;;;5076447;28;20961;-67
2021/09/08 00:55:38;;;;;;;27.65;19.63;;;;;;;;;;5080032;28;20055;-67
2021/09/08 00:58:04;;;;;;;28.35;21.38;;;;;;;;;;5076613;28;20056;-67
2021/09/08 01:00:30;;;;;;;22.70;18.30;;;;;;;;;;5075655;28;20058;-67
2021/09/08 01:02:56;;;;;;;26.38;18.40;;;;;;;;;;5078349;28;20093;-67
2021/09/08 01:05:24;;;;;;;28.40;20.27;;;;;;;;;;5080049;28;20043;-67
2021/09/08 01:07:50;;;;;;;32.67;20.77;;;;;;;;;;5083382;28;20625;-67
2021/09/08 01:10:16;;;;;;;26.05;19.38;;;;;;;;;;5079100;28;20066;-67
2021/09/08 01:12:43;;;;;;;24.98;18.48;;;;;;;;;;5080910;28;20449;-67
2021/09/08 01:15:10;;;;;;;29.17;18.42;;;;;;;;;;5080112;28;20119;-67
2021/09/08 01:17:36;;;;;;;26.02;19.30;;;;;;;;;;5081161;28;20044;-67
2021/09/08 01:20:03;;;;;;;23.83;18.13;;;;;;;;;;5077605;28;20363;-67
2021/09/08 01:22:30;;;;;;;23.33;18.17;;;;;;;;;;5076057;28;20052;-67
2021/09/08 01:24:56;;;;;;;24.65;19.15;;;;;;;;;;5077090;28;20067;-67
2021/09/08 01:27:24;;;;;;;25.35;19.48;;;;;;;;;;5080569;28;20427;-67
2021/09/08 01:29:50;;;;;;;27.00;18.75;;;;;;;;;;5080114;28;20037;-67
2021/09/08 01:32:17;;;;;;;25.58;19.80;;;;;;;;;;5072201;28;20043;-66
2021/09/08 01:34:43;;;;;;;31.35;20.40;;;;;;;;;;5080180;28;20078;-67
2021/09/08 01:37:10;;;;;;;25.55;20.40;;;;;;;;;;5075026;28;20070;-67
2021/09/08 01:39:37;;;;;;;28.73;18.88;;;;;;;;;;5097814;28;20351;-67
2021/09/08 01:42:03;;;;;;;26.35;19.20;;;;;;;;;;5072800;28;20601;-66
2021/09/08 01:44:29;;;;;;;26.17;18.90;;;;;;;;;;5070863;28;20051;-67
2021/09/08 01:46:56;;;;;;;24.35;19.13;;;;;;;;;;5102270;28;20051;-67
2021/09/08 01:49:23;;;;;;;27.73;20.23;;;;;;;;;;5077928;28;20123;-67
2021/09/08 01:51:49;;;;;;;27.08;19.08;;;;;;;;;;5102215;28;20051;-67
2021/09/08 01:54:15;;;;;;;26.60;19.52;;;;;;;;;;5082740;28;20047;-67
2021/09/08 01:56:42;;;;;;;28.92;20.33;;;;;;;;;;5097118;28;20039;-67
2021/09/08 01:59:08;;;;;;;35.03;20.30;;;;;;;;;;5102818;28;20044;-67
2021/09/08 02:01:34;;;;;;;28.20;20.30;;;;;;;;;;5099388;28;20040;-67
2021/09/08 02:04:00;;;;;;;26.70;20.13;;;;;;;;;;5080529;28;20118;-67
2021/09/08 02:06:28;;;;;;;26.23;18.85;;;;;;;;;;5081428;28;20126;-67
2021/09/08 02:08:55;;;;;;;28.67;21.10;;;;;;;;;;5080137;28;20055;-67
2021/09/08 02:11:21;;;;;;;24.75;20.10;;;;;;;;;;5079363;28;20454;-67
2021/09/08 02:13:48;;;;;;;36.08;20.27;;;;;;;;;;5079924;28;20055;-67
2021/09/08 02:16:15;;;;;;;25.00;18.90;;;;;;;;;;5097684;28;20044;-67
2021/09/08 02:18:42;;;;;;;27.23;19.90;;;;;;;;;;5096818;28;20499;-67
2021/09/08 02:21:09;;;;;;;32.03;20.45;;;;;;;;;;5093693;28;20128;-67
2021/09/08 02:23:35;;;;;;;28.23;20.13;;;;;;;;;;5096549;28;20616;-66
2021/09/08 02:26:01;;;;;;;28.10;19.52;;;;;;;;;;5076309;28;20051;-66
2021/09/08 02:28:28;;;;;;;31.35;20.45;;;;;;;;;;5099514;28;20036;-67
2021/09/08 02:30:54;;;;;;;27.40;19.65;;;;;;;;;;5082675;28;20067;-67
2021/09/08 02:33:20;;;;;;;24.38;19.40;;;;;;;;;;5082425;28;20554;-67
2021/09/08 02:35:46;;;;;;;29.65;21.38;;;;;;;;;;5082453;28;20169;-67
2021/09/08 02:38:12;;;;;;;27.65;19.98;;;;;;;;;;5083431;28;20067;-67
2021/09/08 02:40:39;;;;;;;27.80;20.45;;;;;;;;;;5060117;28;20077;-67
2021/09/08 02:43:05;;;;;;;26.52;19.70;;;;;;;;;;5103276;28;20039;-67
2021/09/08 02:45:31;;;;;;;27.08;19.77;;;;;;;;;;5079390;28;20035;-67
2021/09/08 02:47:57;;;;;;;24.83;19.38;;;;;;;;;;5100284;28;20059;-67
2021/09/08 02:50:23;;;;;;;31.05;19.15;;;;;;;;;;5100242;28;20419;-67
2021/09/08 02:52:49;;;;;;;28.45;20.88;;;;;;;;;;5097952;28;20031;-67
2021/09/08 02:55:16;;;;;;;25.45;18.70;;;;;;;;;;5080494;28;20043;-67
2021/09/08 02:57:42;;;;;;;26.42;19.17;;;;;;;;;;5077091;28;20464;-67
2021/09/08 03:00:08;;;;;;;24.45;18.95;;;;;;;;;;5078522;28;20043;-67
2021/09/08 03:02:35;;;;;;;26.33;19.30;;;;;;;;;;5097898;28;20039;-67
2021/09/08 03:05:01;;;;;;;27.23;19.98;;;;;;;;;;5077919;28;20040;-66
2021/09/08 03:07:27;;;;;;;28.98;18.98;;;;;;;;;;5097630;28;20031;-67
2021/09/08 03:09:53;;;;;;;27.10;19.52;;;;;;;;;;5095434;28;20039;-67
2021/09/08 03:12:21;;;;;;;26.02;20.20;;;;;;;;;;5096348;28;20032;-67
2021/09/08 03:14:48;;;;;;;26.10;19.52;;;;;;;;;;5097001;28;20067;-67
2021/09/08 03:17:14;;;;;;;26.33;19.60;;;;;;;;;;5077237;28;20062;-66
2021/09/08 03:19:40;;;;;;;27.13;19.60;;;;;;;;;;5082992;28;20081;-67
2021/09/08 03:22:06;;;;;;;22.63;17.13;;;;;;;;;;5103438;28;20040;-67
2021/09/08 03:24:32;;;;;;;31.67;19.55;;;;;;;;;;5105134;28;20575;-67
2021/09/08 03:26:59;;;;;;;26.65;19.20;;;;;;;;;;5101636;28;20178;-67
2021/09/08 03:29:25;;;;;;;25.92;19.38;;;;;;;;;;5099446;28;20050;-67
2021/09/08 03:31:51;;;;;;;28.17;21.30;;;;;;;;;;5097465;28;20059;-67
2021/09/08 03:34:17;;;;;;;24.50;19.10;;;;;;;;;;5079104;28;20056;-67
2021/09/08 03:36:43;;;;;;;25.77;20.50;;;;;;;;;;5094125;28;20652;-67
2021/09/08 03:39:09;;;;;;;25.45;18.38;;;;;;;;;;5092937;28;20401;-67
2021/09/08 03:41:35;;;;;;;26.05;18.85;;;;;;;;;;5080396;28;20028;-66
2021/09/08 03:44:02;;;;;;;26.67;17.92;;;;;;;;;;5083920;28;20047;-67
2021/09/08 03:46:28;;;;;;;25.00;17.98;;;;;;;;;;5086608;28;20180;-67
2021/09/08 03:48:54;;;;;;;25.67;18.48;;;;;;;;;;5082911;28;20050;-67
2021/09/08 03:51:20;;;;;;;28.77;18.52;;;;;;;;;;5082938;28;20197;-66
2021/09/08 03:53:46;;;;;;;27.30;19.58;;;;;;;;;;5105043;28;20054;-67
2021/09/08 03:56:12;;;;;;;26.48;18.33;;;;;;;;;;5083672;28;20031;-67
2021/09/08 03:58:39;;;;;;;24.20;18.35;;;;;;;;;;5081248;28;20044;-67
2021/09/08 04:01:05;;;;;;;27.95;19.25;;;;;;;;;;5083578;28;20487;-67
2021/09/08 04:03:31;;;;;;;26.77;19.95;;;;;;;;;;5100274;28;20130;-66
2021/09/08 04:05:57;;;;;;;29.30;19.85;;;;;;;;;;5102838;28;20051;-67
2021/09/08 04:08:23;;;;;;;27.08;18.00;;;;;;;;;;5079570;28;20047;-67
2021/09/08 04:10:49;;;;;;;28.80;18.92;;;;;;;;;;5104061;28;20387;-67
2021/09/08 04:13:16;;;;;;;26.25;18.27;;;;;;;;;;5083836;28;20073;-67
2021/09/08 04:15:42;;;;;;;26.58;19.27;;;;;;;;;;5084826;28;20039;-66
2021/09/08 04:18:08;;;;;;;25.10;19.50;;;;;;;;;;5083267;28;20039;-67
2021/09/08 04:20:35;;;;;;;26.27;19.83;;;;;;;;;;5097685;28;20059;-67
2021/09/08 04:23:01;;;;;;;29.33;19.50;;;;;;;;;;5082529;28;20165;-67
2021/09/08 04:25:27;;;;;;;32.30;18.67;;;;;;;;;;5083003;28;20479;-67
2021/09/08 04:27:53;;;;;;;27.23;18.80;;;;;;;;;;5098497;28;20051;-67
2021/09/08 04:30:19;;;;;;;24.63;18.67;;;;;;;;;;5077439;28;20489;-67
2021/09/08 04:32:45;;;;;;;25.60;17.45;;;;;;;;;;5103154;28;20066;-67
2021/09/08 04:35:12;;;;;;;25.98;19.10;;;;;;;;;;5099111;28;20047;-67
2021/09/08 04:37:38;;;;;;;27.67;19.30;;;;;;;;;;5099248;28;20036;-66
2021/09/08 04:40:05;;;;;;;26.63;19.02;;;;;;;;;;5082659;28;20039;-66
2021/09/08 04:42:32;;;;;;;28.73;21.23;;;;;;;;;;5083945;28;20040;-66
2021/09/08 04:44:58;;;;;;;31.55;21.20;;;;;;;;;;5095049;28;20093;-67
2021/09/08 04:47:24;;;;;;;34.42;20.55;;;;;;;;;;5100285;28;20051;-66
2021/09/08 04:49:50;;;;;;;27.35;19.85;;;;;;;;;;5099468;28;20046;-67
2021/09/08 04:52:16;;;;;;;29.83;21.17;;;;;;;;;;5084448;28;20039;-66
2021/09/08 04:54:42;;;;;;;35.88;21.83;;;;;;;;;;5080831;28;20044;-67
2021/09/08 04:57:09;;;;;;;29.30;20.48;;;;;;;;;;5084061;28;21475;-66
2021/09/08 04:59:35;;;;;;;34.20;22.65;;;;;;;;;;5103399;28;20071;-66
2021/09/08 05:02:01;;;;;;;30.15;21.00;;;;;;;;;;5105525;28;20119;-66
2021/09/08 05:04:27;;;;;;;36.28;22.92;;;;;;;;;;5085946;28;20100;-65
2021/09/08 05:06:53;;;;;;;35.05;22.27;;;;;;;;;;5082649;28;20098;-66
2021/09/08 05:09:19;;;;;;;30.95;21.58;;;;;;;;;;5082303;28;20052;-65
2021/09/08 05:11:46;;;;;;;32.85;22.65;;;;;;;;;;5078716;28;20127;-66
2021/09/08 05:14:12;;;;;;;28.65;19.98;;;;;;;;;;5100852;28;20050;-66
2021/09/08 05:16:38;;;;;;;26.02;19.75;;;;;;;;;;5101873;28;20150;-66
2021/09/08 05:19:04;;;;;;;26.98;18.58;;;;;;;;;;5082192;28;20051;-66
2021/09/08 05:21:31;;;;;;;33.30;19.38;;;;;;;;;;5086230;28;20493;-65
2021/09/08 05:23:57;;;;;;;31.48;19.80;;;;;;;;;;5103037;28;20055;-66
2021/09/08 05:26:23;;;;;;;29.08;19.23;;;;;;;;;;5105313;28;20388;-66
2021/09/08 05:28:49;;;;;;;27.90;20.17;;;;;;;;;;5102886;28;20040;-66
2021/09/08 05:31:15;;;;;;;29.15;20.00;;;;;;;;;;5101974;28;20078;-67
2021/09/08 05:33:42;;;;;;;29.20;20.05;;;;;;;;;;5088273;28;20051;-68
2021/09/08 05:36:08;;;;;;;29.98;21.63;;;;;;;;;;5102338;28;20048;-66
2021/09/08 05:38:34;;;;;;;33.80;22.40;;;;;;;;;;5105759;28;20040;-66
2021/09/08 05:41:03;;;;;;;38.25;22.52;;;;;;;;;;5106181;28;20534;-66
2021/09/08 05:43:29;;;;;;;32.70;21.75;;;;;;;;;;5086750;28;20075;-66
2021/09/08 05:45:55;;;;;;;34.05;22.75;;;;;;;;;;5084627;28;20455;-66
2021/09/08 05:48:21;;;;;;;34.47;23.63;;;;;;;;;;5097467;28;20399;-66
2021/09/08 05:50:47;;;;;;;31.88;21.63;;;;;;;;;;5107869;28;20119;-66
2021/09/08 05:53:13;;;;;;;33.10;22.52;;;;;;;;;;5098256;28;20172;-66
2021/09/08 05:55:40;;;;;;;34.38;22.50;;;;;;;;;;5087004;28;20470;-66
2021/09/08 05:58:06;;;;;;;37.85;22.50;;;;;;;;;;5087419;28;20048;-65
2021/09/08 06:00:32;;;;;;;48.03;23.73;;;;;;;;;;5100623;28;20058;-65
2021/09/08 06:02:58;;;;;;;30.10;22.35;;;;;;;;;;5100853;28;20117;-65
2021/09/08 06:05:24;;;;;;;31.85;22.73;;;;;;;;;;5099871;28;20327;-65
2021/09/08 06:07:52;;;;;;;30.67;22.92;;;;;;;;;;5102573;28;20032;-65
2021/09/08 06:10:20;;;;;;;30.80;22.10;;;;;;;;;;5083309;28;20122;-65
2021/09/08 06:12:47;;;;;;;33.40;21.95;;;;;;;;;;5103550;28;20094;-65
2021/09/08 06:15:13;;;;;;;30.50;21.05;;;;;;;;;;5102751;28;20047;-66
2021/09/08 06:17:40;;;;;;;27.02;20.85;;;;;;;;;;5083457;28;20089;-66
2021/09/08 06:20:07;;;;;;;30.58;21.27;;;;;;;;;;5096481;28;20085;-66
2021/09/08 06:22:33;;;;;;;27.02;21.35;;;;;;;;;;5105255;28;20449;-66
2021/09/08 06:24:59;;;;;;;30.65;20.83;;;;;;;;;;5084839;28;20130;-66
2021/09/08 06:27:25;;;;;;;30.40;21.48;;;;;;;;;;5090761;28;20039;-66
2021/09/08 06:29:51;;;;;;;30.00;20.75;;;;;;;;;;5083153;28;20043;-66
2021/09/08 06:32:17;;;;;;;28.27;20.48;;;;;;;;;;5078201;28;20140;-66
2021/09/08 06:34:47;;;;;;;25.92;19.58;;;;;;;;;;5105050;28;20047;-66
2021/09/08 06:37:13;;;;;;;29.50;19.75;;;;;;;;;;5092608;28;20161;-66
2021/09/08 06:39:40;;;;;;;29.67;20.10;;;;;;;;;;5102661;28;20091;-65
2021/09/08 06:42:06;;;;;;;25.15;19.60;;;;;;;;;;5105798;28;20039;-66
2021/09/08 06:44:32;;;;;;;29.83;19.75;;;;;;;;;;5087685;28;20082;-65
2021/09/08 06:46:58;;;;;;;24.33;18.17;;;;;;;;;;5104625;28;20451;-65
2021/09/08 06:49:25;;;;;;;31.25;18.58;;;;;;;;;;5096649;28;20123;-66
2021/09/08 06:51:51;;;;;;;31.05;19.67;;;;;;;;;;5098984;28;20390;-66
2021/09/08 06:54:17;;;;;;;27.17;17.90;;;;;;;;;;5082245;28;20051;-66
2021/09/08 06:56:43;;;;;;;25.75;18.08;;;;;;;;;;5083984;28;20044;-65
2021/09/08 06:59:09;;;;;;;24.73;18.77;;;;;;;;;;5100692;28;20422;-66
2021/09/08 07:01:36;;;;;;;27.65;18.95;;;;;;;;;;5088892;28;20062;-65
2021/09/08 07:04:02;;;;;;;28.38;18.85;;;;;;;;;;5085851;28;20134;-66
2021/09/08 07:06:28;;;;;;;29.45;19.95;;;;;;;;;;5086003;28;20031;-65
2021/09/08 07:08:54;;;;;;;26.67;19.05;;;;;;;;;;5088713;28;20047;-66
2021/09/08 07:11:21;;;;;;;26.30;18.30;;;;;;;;;;5078755;28;20074;-66
2021/09/08 07:13:48;;;;;;;25.85;19.10;;;;;;;;;;5099207;28;20092;-66
2021/09/08 07:16:14;;;;;;;27.40;19.13;;;;;;;;;;5078605;28;20047;-66
2021/09/08 07:18:40;;;;;;;26.17;18.35;;;;;;;;;;5084155;28;20123;-66
2021/09/08 07:21:07;;;;;;;26.65;19.42;;;;;;;;;;5085079;28;20043;-66
2021/09/08 07:23:33;;;;;;;24.48;18.75;;;;;;;;;;5081304;28;20089;-66
2021/09/08 07:26:00;;;;;;;22.48;17.13;;;;;;;;;;5097512;28;20081;-66
2021/09/08 07:28:26;;;;;;;25.95;18.95;;;;;;;;;;5105182;28;20043;-66
2021/09/08 07:30:53;;;;;;;25.42;17.65;;;;;;;;;;5106021;28;20047;-65
2021/09/08 07:33:20;;;;;;;23.27;17.58;;;;;;;;;;5102594;28;20051;-66
2021/09/08 07:35:48;;;;;;;23.67;17.77;;;;;;;;;;5105696;28;20463;-66
2021/09/08 07:38:14;;;;;;;24.13;17.33;;;;;;;;;;5095657;28;20039;-66
2021/09/08 07:40:41;;;;;;;24.95;17.45;;;;;;;;;;5104752;28;20394;-66
2021/09/08 07:43:08;;;;;;;24.85;16.85;;;;;;;;;;5107241;28;20055;-66
2021/09/08 07:45:34;;;;;;;24.27;17.23;;;;;;;;;;5086113;28;20040;-66
2021/09/08 07:48:00;;;;;;;22.02;16.83;;;;;;;;;;5092329;28;20044;-66
2021/09/08 07:50:28;;;;;;;21.58;16.60;;;;;;;;;;5084230;28;20039;-66
2021/09/08 07:52:54;;;;;;;26.95;17.52;;;;;;;;;;5084005;28;20067;-66
2021/09/08 07:55:20;;;;;;;24.50;16.98;;;;;;;;;;5084490;28;20511;-66
2021/09/08 07:57:46;;;;;;;23.83;18.25;;;;;;;;;;5085082;28;20085;-66
2021/09/08 08:00:13;;;;;;;20.63;16.10;;;;;;;;;;5081485;28;20039;-66
2021/09/08 08:02:43;;;;;;;22.27;16.02;;;;;;;;;;5084768;28;20046;-66
2021/09/08 08:05:09;;;;;;;23.52;17.52;;;;;;;;;;5081409;28;20048;-66
2021/09/08 08:07:36;;;;;;;20.63;15.10;;;;;;;;;;5098527;28;20112;-66
2021/09/08 08:10:02;;;;;;;21.73;16.55;;;;;;;;;;5099339;28;20030;-65
2021/09/08 08:12:29;;;;;;;28.10;16.63;;;;;;;;;;5085184;28;20101;-65
2021/09/08 08:14:55;;;;;;;21.20;16.38;;;;;;;;;;5084481;28;20421;-66
2021/09/08 08:17:21;;;;;;;22.45;15.60;;;;;;;;;;5086473;28;20048;-66
2021/09/08 08:19:48;;;;;;;26.40;15.25;;;;;;;;;;5090221;28;20047;-66
2021/09/08 08:22:14;;;;;;;21.55;15.45;;;;;;;;;;5100950;28;20050;-66
2021/09/08 08:24:41;;;;;;;30.60;16.13;;;;;;;;;;5106538;28;20483;-66
2021/09/08 08:27:07;;;;;;;22.75;16.50;;;;;;;;;;5083901;28;20067;-66
2021/09/08 08:29:33;;;;;;;22.13;15.63;;;;;;;;;;5088691;28;20040;-66
2021/09/08 08:31:59;;;;;;;22.38;15.43;;;;;;;;;;5097707;28;20044;-67
2021/09/08 08:34:26;;;;;;;21.33;14.25;;;;;;;;;;5099658;28;20056;-67
2021/09/08 08:36:52;;;;;;;20.33;13.82;;;;;;;;;;5097901;28;20047;-67
2021/09/08 08:39:18;;;;;;;24.58;14.27;;;;;;;;;;5089368;28;20106;-67
2021/09/08 08:41:45;;;;;;;19.33;14.07;;;;;;;;;;5104545;28;20040;-67
2021/09/08 08:44:11;;;;;;;20.98;13.90;;;;;;;;;;5106218;28;20040;-67
2021/09/08 08:46:37;;;;;;;22.20;15.05;;;;;;;;;;5101551;28;20063;-66
2021/09/08 08:49:04;;;;;;;19.45;14.77;;;;;;;;;;5089758;28;20048;-67
2021/09/08 08:51:31;;;;;;;17.02;12.93;;;;;;;;;;5101156;28;20032;-67
2021/09/08 08:53:57;;;;;;;17.80;11.98;;;;;;;;;;5098699;28;20046;-67
2021/09/08 08:56:24;;;;;;;17.17;11.45;;;;;;;;;;5099573;28;20076;-66
2021/09/08 08:58:50;;;;;;;15.25;11.65;;;;;;;;;;5104597;28;20465;-67
2021/09/08 09:01:19;;;;;;;16.63;12.18;;;;;;;;;;5103419;28;20077;-67
2021/09/08 09:04:02;;;;;;;15.48;11.32;;;;;;;;;;5099416;28;20372;-67
2021/09/08 09:06:29;;;;;;;18.92;10.65;;;;;;;;;;5102989;28;20055;-67
2021/09/08 09:09:00;;;;;;;15.60;11.50;;;;;;;;;;5100589;28;20047;-67
2021/09/08 09:11:26;;;;;;;17.05;10.77;;;;;;;;;;5103233;28;20042;-67
2021/09/08 09:13:53;;;;;;;14.65;10.38;;;;;;;;;;5102542;28;20050;-66
2021/09/08 09:16:19;;;;;;;19.23;10.93;;;;;;;;;;5082014;28;20080;-66
2021/09/08 09:18:45;;;;;;;14.38;10.23;;;;;;;;;;5083042;28;20122;-67
2021/09/08 09:21:12;;;;;;;16.80;10.65;;;;;;;;;;5085114;28;20150;-67
2021/09/08 09:23:43;;;;;;;18.92;10.32;;;;;;;;;;5086615;28;20072;-66
2021/09/08 09:26:09;;;;;;;17.27;9.48;;;;;;;;;;5090182;28;20040;-70
2021/09/08 09:28:43;;;;;;;16.60;10.00;;;;;;;;;;5086528;28;20054;-67
2021/09/08 09:31:13;;;;;;;15.15;10.27;;;;;;;;;;5094018;28;20064;-67
2021/09/08 09:33:44;;;;;;;13.07;10.00;;;;;;;;;;5081712;28;20044;-67
2021/09/08 09:36:16;;;;;;;12.65;9.52;;;;;;;;;;5100591;28;20078;-67
2021/09/08 09:38:43;;;;;;;18.50;9.93;;;;;;;;;;5086687;28;20105;-67
2021/09/08 09:41:10;;;;;;;16.02;10.52;;;;;;;;;;5086288;28;20036;-66
2021/09/08 09:43:41;;;;;;;14.35;10.30;;;;;;;;;;5106118;28;20096;-66
2021/09/08 09:46:08;;;;;;;16.65;11.10;;;;;;;;;;5088498;28;20135;-67
2021/09/08 09:48:34;;;;;;;17.95;11.90;;;;;;;;;;5088818;28;20044;-67
2021/09/08 09:51:03;;;;;;;13.13;10.07;;;;;;;;;;5083524;28;20384;-66
2021/09/08 09:53:30;;;;;;;16.90;10.25;;;;;;;;;;5085024;28;20071;-68
2021/09/08 09:55:56;;;;;;;14.85;9.90;;;;;;;;;;5087914;28;20031;-67
2021/09/08 09:58:23;;;;;;;14.93;9.52;;;;;;;;;;5082563;28;20039;-67
2021/09/08 10:00:50;;;;;;;14.88;10.30;;;;;;;;;;5110114;28;20040;-67
2021/09/08 10:03:16;;;;;;;12.73;8.93;;;;;;;;;;5094792;28;20040;-67
2021/09/08 10:05:43;;;;;;;14.23;9.80;;;;;;;;;;5102196;28;20023;-67
2021/09/08 10:08:09;;;;;;;14.02;8.85;;;;;;;;;;5084819;28;20051;-67
2021/09/08 10:10:36;;;;;;;12.43;8.32;;;;;;;;;;5080437;28;20039;-67
2021/09/08 10:13:13;;;;;;;13.77;9.35;;;;;;;;;;5110855;28;20131;-67
2021/09/08 10:15:39;;;;;;;14.50;9.00;;;;;;;;;;5084314;28;20039;-67
2021/09/08 10:18:06;;;;;;;14.70;8.05;;;;;;;;;;5105844;28;20131;-67
2021/09/08 10:20:33;;;;;;;13.23;8.68;;;;;;;;;;5096706;28;20040;-67
2021/09/08 10:23:08;;;;;;;10.60;8.68;;;;;;;;;;5106272;28;20382;-67
2021/09/08 10:25:34;;;;;;;13.27;8.88;;;;;;;;;;5083028;28;20829;-67
2021/09/08 10:28:01;;;;;;;17.48;8.35;;;;;;;;;;5104460;28;20119;-67
2021/09/08 10:30:27;;;;;;;14.00;8.27;;;;;;;;;;5087301;28;20039;-67
2021/09/08 10:32:54;;;;;;;15.20;8.45;;;;;;;;;;5063383;28;20246;-67
2021/09/08 10:35:21;;;;;;;11.77;8.27;;;;;;;;;;5084854;28;20044;-67
2021/09/08 10:37:49;;;;;;;8.70;6.53;;;;;;;;;;5080642;28;20142;-67
2021/09/08 10:40:16;;;;;;;11.45;8.00;;;;;;;;;;5080065;28;21233;-67
2021/09/08 10:42:47;;;;;;;11.25;7.35;;;;;;;;;;5079608;28;20459;-67
2021/09/08 10:45:17;;;;;;;10.95;7.75;;;;;;;;;;5082025;28;20500;-67
2021/09/08 10:47:43;;;;;;;9.93;6.78;;;;;;;;;;5081236;28;20161;-67
2021/09/08 10:50:10;;;;;;;13.25;7.70;;;;;;;;;;5077139;28;20494;-68
2021/09/08 10:52:36;;;;;;;13.98;7.15;;;;;;;;;;5079537;28;20048;-68
2021/09/08 10:55:02;;;;;;;11.52;7.28;;;;;;;;;;5069992;28;20135;-68
2021/09/08 10:57:41;;;;;;;9.75;6.75;;;;;;;;;;5080003;28;20036;-67
2021/09/08 11:00:08;;;;;;;14.38;7.07;;;;;;;;;;5081561;28;20040;-67
2021/09/08 11:02:41;;;;;;;10.00;7.28;;;;;;;;;;5082688;28;20048;-67
2021/09/08 11:05:09;;;;;;;11.30;6.55;;;;;;;;;;5082430;28;20080;-68
2021/09/08 11:07:38;;;;;;;8.23;6.72;;;;;;;;;;5076623;28;20521;-68
2021/09/08 11:10:04;;;;;;;16.55;7.15;;;;;;;;;;5085052;28;20060;-68
2021/09/08 11:12:46;;;;;;;13.07;7.07;;;;;;;;;;5075962;28;20072;-68
2021/09/08 11:15:13;;;;;;;10.10;6.53;;;;;;;;;;5081469;28;20400;-68
2021/09/08 11:17:39;;;;;;;9.93;5.85;;;;;;;;;;5081113;28;20036;-68
2021/09/08 11:20:06;;;;;;;8.45;5.78;;;;;;;;;;5083191;28;20436;-68
2021/09/08 11:22:32;;;;;;;7.80;5.50;;;;;;;;;;5079860;28;20045;-68
2021/09/08 11:25:02;;;;;;;9.75;5.70;;;;;;;;;;5079716;28;20524;-68
2021/09/08 11:27:28;;;;;;;9.65;6.25;;;;;;;;;;5081536;28;20123;-68
2021/09/08 11:30:03;;;;;;;7.35;5.38;;;;;;;;;;5083041;28;20385;-68
2021/09/08 11:32:29;;;;;;;7.07;5.33;;;;;;;;;;5081930;28;20576;-68
2021/09/08 11:34:55;;;;;;;7.97;5.82;;;;;;;;;;5082210;28;20051;-68
2021/09/08 11:37:22;;;;;;;8.98;5.47;;;;;;;;;;5073396;28;20081;-68
2021/09/08 11:39:48;;;;;;;12.27;5.68;;;;;;;;;;5079774;28;20135;-68
2021/09/08 11:42:15;;;;;;;8.18;5.88;;;;;;;;;;5085777;28;20054;-68
2021/09/08 11:44:41;;;;;;;11.32;5.40;;;;;;;;;;5083599;28;20126;-68
2021/09/08 11:47:15;;;;;;;6.82;5.00;;;;;;;;;;5109124;28;20082;-68
2021/09/08 11:49:41;;;;;;;9.90;5.55;;;;;;;;;;5080995;28;20504;-68
2021/09/08 11:52:16;;;;;;;7.95;5.05;;;;;;;;;;5100566;28;20119;-68
2021/09/08 11:54:46;;;;;;;9.00;5.78;;;;;;;;;;5104452;28;20039;-68
2021/09/08 11:57:14;;;;;;;9.75;5.63;;;;;;;;;;5098845;28;20040;-68
2021/09/08 11:59:42;;;;;;;6.53;4.82;;;;;;;;;;5104657;28;20055;-68
2021/09/08 12:02:08;;;;;;;7.85;5.55;;;;;;;;;;5102906;28;20035;-68
2021/09/08 12:04:34;;;;;;;8.82;5.97;;;;;;;;;;5104453;28;20058;-68
2021/09/08 12:07:02;;;;;;;7.35;5.53;;;;;;;;;;5105516;28;20486;-68
2021/09/08 12:09:29;;;;;;;9.52;5.03;;;;;;;;;;5103387;28;20092;-68
2021/09/08 12:11:58;;;;;;;7.60;5.00;;;;;;;;;;5086901;28;20470;-68
2021/09/08 12:14:24;;;;;;;7.28;5.38;;;;;;;;;;5082194;28;20074;-68
2021/09/08 12:16:52;;;;;;;9.10;5.93;;;;;;;;;;5108704;28;20374;-68
2021/09/08 12:19:19;;;;;;;8.75;5.13;;;;;;;;;;5100751;28;20115;-68
2021/09/08 12:21:46;;;;;;;6.60;4.93;;;;;;;;;;5106551;28;20487;-68
2021/09/08 12:24:19;;;;;;;10.55;4.85;;;;;;;;;;5113086;28;20171;-68
2021/09/08 12:26:46;;;;;;;7.53;4.80;;;;;;;;;;5101143;28;20040;-68
2021/09/08 12:29:12;;;;;;;8.68;5.05;;;;;;;;;;5106594;28;20487;-68
2021/09/08 12:31:46;;;;;;;7.95;5.80;;;;;;;;;;5101329;28;20083;-68
2021/09/08 12:34:12;;;;;;;7.07;5.10;;;;;;;;;;5102991;28;20047;-68
2021/09/08 12:36:38;;;;;;;6.65;5.10;;;;;;;;;;5107667;28;20128;-68
2021/09/08 12:39:11;;;;;;;8.02;5.55;;;;;;;;;;5092417;28;20082;-68
2021/09/08 12:41:38;;;;;;;7.28;5.10;;;;;;;;;;5083901;28;20051;-68
2021/09/08 12:44:04;;;;;;;7.30;5.03;;;;;;;;;;5090227;28;20059;-68
2021/09/08 12:46:38;;;;;;;11.20;5.85;;;;;;;;;;5082709;28;20352;-68
2021/09/08 12:49:05;;;;;;;7.72;5.20;;;;;;;;;;5089426;28;20523;-68
2021/09/08 12:51:31;;;;;;;9.02;5.10;;;;;;;;;;5103540;28;20047;-68
2021/09/08 12:53:57;;;;;;;11.52;4.90;;;;;;;;;;5084556;28;20414;-68
2021/09/08 12:56:23;;;;;;;8.27;4.65;;;;;;;;;;5087431;28;20044;-68
2021/09/08 12:58:49;;;;;;;7.72;4.40;;;;;;;;;;5099709;28;20040;-68
2021/09/08 13:01:20;;;;;;;6.40;4.15;;;;;;;;;;5093962;28;20039;-68
2021/09/08 13:03:47;;;;;;;7.75;4.28;;;;;;;;;;5077834;28;20443;-68
2021/09/08 13:06:13;;;;;;;8.38;5.00;;;;;;;;;;5093233;28;20046;-68
2021/09/08 13:08:39;;;;;;;9.70;5.13;;;;;;;;;;5083352;28;20055;-68
2021/09/08 13:11:06;;;;;;;8.02;4.88;;;;;;;;;;5086991;28;20431;-68
2021/09/08 13:13:32;;;;;;;11.13;4.85;;;;;;;;;;5101025;28;20036;-69
2021/09/08 13:15:59;;;;;;;11.00;5.10;;;;;;;;;;5108092;28;20047;-68
2021/09/08 13:18:25;;;;;;;7.75;4.80;;;;;;;;;;5103001;28;20036;-67
2021/09/08 13:20:51;;;;;;;8.25;4.90;;;;;;;;;;5083153;28;20480;-68
2021/09/08 13:23:18;;;;;;;8.18;5.53;;;;;;;;;;5083755;28;20506;-67
2021/09/08 13:25:44;;;;;;;6.80;5.00;;;;;;;;;;5104015;28;20049;-68
2021/09/08 13:28:10;;;;;;;9.63;5.22;;;;;;;;;;5095391;28;20067;-67
2021/09/08 13:30:36;;;;;;;10.40;5.63;;;;;;;;;;5080975;28;20048;-67
2021/09/08 13:33:02;;;;;;;10.70;5.07;;;;;;;;;;5105670;28;20067;-68
2021/09/08 13:35:29;;;;;;;6.30;4.60;;;;;;;;;;5105704;28;20048;-69
2021/09/08 13:37:55;;;;;;;7.85;4.85;;;;;;;;;;5086669;28;20089;-67
2021/09/08 13:40:21;;;;;;;6.22;4.15;;;;;;;;;;5076308;28;20373;-67
2021/09/08 13:42:47;;;;;;;9.88;4.93;;;;;;;;;;5090533;28;20046;-67
2021/09/08 13:45:14;;;;;;;10.27;5.03;;;;;;;;;;5090891;28;20051;-68
2021/09/08 13:47:40;;;;;;;10.82;4.95;;;;;;;;;;5091341;28;20048;-68
2021/09/08 13:50:06;;;;;;;8.52;5.45;;;;;;;;;;5088649;28;20452;-68
2021/09/08 13:52:32;;;;;;;8.73;4.95;;;;;;;;;;5102853;28;20059;-67
2021/09/08 13:55:00;;;;;;;8.10;5.05;;;;;;;;;;5096601;28;20456;-67
2021/09/08 13:57:26;;;;;;;8.95;5.50;;;;;;;;;;5103504;28;20483;-67
2021/09/08 13:59:53;;;;;;;7.55;5.72;;;;;;;;;;5080964;28;20050;-67
2021/09/08 14:02:19;;;;;;;8.40;4.97;;;;;;;;;;5085865;28;20097;-67
2021/09/08 14:04:45;;;;;;;7.75;4.80;;;;;;;;;;5103236;28;20451;-67
2021/09/08 14:07:11;;;;;;;8.52;5.25;;;;;;;;;;5089160;28;20040;-67
2021/09/08 14:09:37;;;;;;;7.38;5.03;;;;;;;;;;5083151;28;20071;-67
2021/09/08 14:12:04;;;;;;;6.63;4.38;;;;;;;;;;5107768;28;20043;-67
2021/09/08 14:14:30;;;;;;;7.85;4.68;;;;;;;;;;5070517;28;20048;-68
2021/09/08 14:16:56;;;;;;;6.57;4.75;;;;;;;;;;5088108;28;20092;-67
2021/09/08 14:19:22;;;;;;;7.38;4.57;;;;;;;;;;5080354;28;20122;-68
2021/09/08 14:21:48;;;;;;;11.60;4.82;;;;;;;;;;5082449;28;20044;-68